Estación Meteorológica Peña el Pijo (Robertgarden) [ 12/14/19 08:40:01 CET ]

Fecha Hora Presion(HPa) Temp (°C) Humedad % Rocio (°C) Viento ( m/s) Direccion Lluvia 1Hora(mm) Lluvia 24H(mm) LLuvia Total(mm)
2019-Nov-11 01:01:50 1005.600 4.9 67 -0.7       2.59 24.86
2019-Nov-11 02:10:04 1005.700 4.5 67 -1.1 0.7 N   2.59 24.86
2019-Nov-11 03:03:18 1005.800 4.2 70 -0.8       2.59 24.86
2019-Nov-11 04:01:43 1005.500 3.2 71 -1.5       2.59 24.86
2019-Nov-11 05:01:40 1005.900 2.1 74 -2.1       1.55 24.86
2019-Nov-11 06:01:32 1005.500 2.1 75 -1.9       1.03 24.86
2019-Nov-11 07:01:35 1005.200 2.4 76 -1.4       0.51 24.86
2019-Nov-11 08:01:40 1005.100 3.9 73 -0.5         24.86
2019-Nov-11 09:01:35 1005.400 4.7 71 -0.1 3.6 NNW     24.86
2019-Nov-11 10:01:51 1005.100 6.1 66 0.2         24.86
2019-Nov-11 11:01:42 1004.400 7.6 59 0.1         24.86
2019-Nov-11 12:01:35 1004.600 8.2 57 0.1         24.86
2019-Nov-11 13:01:51 1003.900 8.9 55 0.3         24.86
2019-Nov-11 14:01:49 1003.500 9.1 56 0.8         24.86
2019-Nov-11 15:01:41 1003.500 9.8 56 1.4 3.2 NNE     24.86
2019-Nov-11 16:01:47 1003.300 9.9 60 2.5         24.86
2019-Nov-11 17:01:54 1003.400 9.3 67 3.5         24.86
2019-Nov-11 18:01:40 1004.000 8.4 70 3.3         24.86
2019-Nov-11 19:01:46 1004.100 8.1 74 3.8         24.86
2019-Nov-11 20:01:44 1004.400 7.9 74 3.6         24.86
2019-Nov-11 21:01:49 1004.500 8.2 74 3.8         24.86
2019-Nov-11 22:01:51 1004.700 8.1 73 3.6         24.86
2019-Nov-11 23:01:54 1004.700 7.8 71 2.9 1.1 SW     24.86

Temperatura Máxima:    Temperatura Mínima:
Presión Máxima:1005.900 Hpa    Presión Mínima:1003.300 Hpa


Volver